createdAt,value
2023-05-05T00:00:51.826Z,41.06
2023-05-05T00:03:21.249Z,41.97
2023-05-05T00:05:50.088Z,41.49
2023-05-05T00:08:17.965Z,41.93
2023-05-05T00:10:45.953Z,41.87
2023-05-05T00:13:14.277Z,42.18
2023-05-05T00:15:44.014Z,42.10
2023-05-05T00:18:12.463Z,42.19
2023-05-05T00:20:40.050Z,42.67
2023-05-05T00:23:07.615Z,42.82
2023-05-05T00:25:35.289Z,42.76
2023-05-05T00:28:02.800Z,43.20
2023-05-05T00:30:30.627Z,43.25
2023-05-05T00:32:58.752Z,43.60
2023-05-05T00:35:27.064Z,44.09
2023-05-05T00:37:55.525Z,44.20
2023-05-05T00:40:23.667Z,43.97
2023-05-05T00:42:51.439Z,44.33
2023-05-05T00:45:20.310Z,44.46
2023-05-05T00:47:53.676Z,45.64
2023-05-05T00:50:26.903Z,44.76
2023-05-05T00:52:57.688Z,45.34
2023-05-05T00:55:26.185Z,45.47
2023-05-05T00:57:54.084Z,45.75
2023-05-05T01:00:22.098Z,45.72
2023-05-05T01:02:49.708Z,46.15
2023-05-05T01:05:18.306Z,46.08
2023-05-05T01:08:07.271Z,47.75
2023-05-05T01:10:52.855Z,47.54
2023-05-05T01:13:48.503Z,47.70
2023-05-05T01:16:23.055Z,47.50
2023-05-05T01:18:56.542Z,47.44
2023-05-05T01:21:43.306Z,48.14
2023-05-05T01:24:48.117Z,48.24
2023-05-05T01:27:34.403Z,46.98
2023-05-05T01:30:38.240Z,48.36
2023-05-05T01:33:09.934Z,47.57
2023-05-05T01:35:45.041Z,48.21
2023-05-05T01:38:19.381Z,48.63
2023-05-05T01:40:52.390Z,47.98
2023-05-05T01:43:23.539Z,48.07
2023-05-05T01:45:52.930Z,47.80
2023-05-05T01:48:24.638Z,47.95
2023-05-05T01:50:54.196Z,48.15
2023-05-05T01:53:25.850Z,48.13
2023-05-05T01:55:55.802Z,48.51
2023-05-05T01:58:25.361Z,48.22
2023-05-05T02:00:56.736Z,48.24
2023-05-05T02:03:25.896Z,48.71
2023-05-05T02:05:54.893Z,48.74
2023-05-05T02:08:24.980Z,49.00
2023-05-05T02:10:53.942Z,48.84
2023-05-05T02:13:23.528Z,49.54
2023-05-05T02:15:52.312Z,48.94
2023-05-05T02:18:21.024Z,49.07
2023-05-05T02:20:49.006Z,48.92
2023-05-05T02:23:16.874Z,48.76
2023-05-05T02:25:49.323Z,48.94
2023-05-05T02:28:35.573Z,49.36
2023-05-05T02:31:07.351Z,48.31
2023-05-05T02:33:38.037Z,47.97
2023-05-05T02:36:17.991Z,47.82
2023-05-05T02:38:58.197Z,47.53
2023-05-05T02:41:29.700Z,47.71
2023-05-05T02:44:03.077Z,47.67
2023-05-05T02:46:32.886Z,47.47
2023-05-05T02:49:00.476Z,47.14
2023-05-05T02:51:28.176Z,47.30
2023-05-05T02:53:58.766Z,47.21
2023-05-05T02:56:42.970Z,48.11
2023-05-05T02:59:40.572Z,48.00
2023-05-05T03:02:27.842Z,47.95
2023-05-05T03:05:04.503Z,47.91
2023-05-05T03:07:39.361Z,47.70
2023-05-05T03:10:14.116Z,47.85
2023-05-05T03:12:56.811Z,48.32
2023-05-05T03:15:46.301Z,48.07
2023-05-05T03:18:16.459Z,47.92
2023-05-05T03:20:48.839Z,47.17
2023-05-05T03:23:21.030Z,47.41
2023-05-05T03:25:52.047Z,47.63
2023-05-05T03:28:42.249Z,47.73
2023-05-05T03:31:21.474Z,47.86
2023-05-05T03:33:54.086Z,48.17
2023-05-05T03:36:27.186Z,47.98
2023-05-05T03:38:56.424Z,47.67
2023-05-05T03:41:25.997Z,47.63
2023-05-05T03:43:54.221Z,47.46
2023-05-05T03:46:22.060Z,47.50
2023-05-05T03:48:49.629Z,47.33
2023-05-05T03:51:17.570Z,47.05
2023-05-05T03:53:45.628Z,46.74
2023-05-05T03:56:13.241Z,46.50
2023-05-05T03:58:40.741Z,46.51
2023-05-05T04:01:08.459Z,46.32
2023-05-05T04:03:36.192Z,46.67
2023-05-05T04:06:03.961Z,46.34
2023-05-05T04:08:33.136Z,46.41
2023-05-05T04:11:02.631Z,46.96
2023-05-05T04:13:31.698Z,47.13
2023-05-05T04:15:59.997Z,47.41
2023-05-05T04:18:27.662Z,47.32
2023-05-05T04:20:55.590Z,47.27
2023-05-05T04:23:23.740Z,46.90
2023-05-05T04:25:51.645Z,46.95
2023-05-05T04:28:21.799Z,46.73
2023-05-05T04:30:50.094Z,46.67
2023-05-05T04:33:17.937Z,46.83
2023-05-05T04:35:47.641Z,46.80
2023-05-05T04:38:15.828Z,46.46
2023-05-05T04:40:44.034Z,46.41
2023-05-05T04:43:12.287Z,45.95
2023-05-05T04:45:40.306Z,46.11
2023-05-05T04:48:07.915Z,46.05
2023-05-05T04:50:35.507Z,46.27
2023-05-05T04:53:03.080Z,46.42
2023-05-05T04:55:30.710Z,46.37
2023-05-05T04:57:58.368Z,46.14
2023-05-05T05:00:25.876Z,45.79
2023-05-05T05:02:53.956Z,45.29
2023-05-05T05:05:21.714Z,44.93
2023-05-05T05:07:49.244Z,44.43
2023-05-05T05:10:17.440Z,44.04
2023-05-05T05:12:47.397Z,43.62
2023-05-05T05:15:15.054Z,43.32
2023-05-05T05:17:42.748Z,42.87
2023-05-05T05:20:10.858Z,42.27
2023-05-05T05:22:39.178Z,41.80
2023-05-05T05:25:11.082Z,41.65
2023-05-05T05:27:39.399Z,41.93
2023-05-05T05:30:08.829Z,42.12
2023-05-05T05:32:36.609Z,41.72
2023-05-05T05:35:05.458Z,41.32
2023-05-05T05:37:34.604Z,41.06
2023-05-05T05:40:05.109Z,40.27
2023-05-05T05:42:37.389Z,39.15
2023-05-05T05:45:07.225Z,39.06
2023-05-05T05:47:35.001Z,39.08
2023-05-05T05:50:04.827Z,39.59
2023-05-05T05:52:33.279Z,39.96
2023-05-05T05:55:00.815Z,40.41
2023-05-05T05:57:28.378Z,40.94
2023-05-05T05:59:56.025Z,41.08
2023-05-05T06:02:24.505Z,41.44
2023-05-05T06:04:52.446Z,42.00
2023-05-05T06:07:20.192Z,42.31
2023-05-05T06:09:48.062Z,42.30
2023-05-05T06:12:16.105Z,42.47
2023-05-05T06:14:43.886Z,42.66
2023-05-05T06:17:11.352Z,42.77
2023-05-05T06:19:40.981Z,42.98
2023-05-05T06:22:09.519Z,43.56
2023-05-05T06:24:37.356Z,43.37
2023-05-05T06:27:05.665Z,43.66
2023-05-05T06:29:33.213Z,43.87
2023-05-05T06:32:01.505Z,43.70
2023-05-05T06:34:29.076Z,43.61
2023-05-05T06:36:56.508Z,43.28
2023-05-05T06:39:24.086Z,43.08
2023-05-05T06:41:52.021Z,42.70
2023-05-05T06:44:19.569Z,42.32
2023-05-05T06:46:47.382Z,42.21
2023-05-05T06:49:14.898Z,41.71
2023-05-05T06:51:42.915Z,40.98
2023-05-05T06:54:10.542Z,40.77
2023-05-05T06:56:37.968Z,40.32
2023-05-05T06:59:05.470Z,39.93
2023-05-05T07:01:32.903Z,39.70
2023-05-05T07:04:00.784Z,39.76
2023-05-05T07:06:28.598Z,40.01
2023-05-05T07:08:56.472Z,40.11
2023-05-05T07:11:24.141Z,40.00
2023-05-05T07:13:51.892Z,38.97
2023-05-05T07:16:19.360Z,37.54
2023-05-05T07:18:46.990Z,36.77
2023-05-05T07:21:16.969Z,36.32
2023-05-05T07:23:46.376Z,36.46
2023-05-05T07:26:15.330Z,36.68
2023-05-05T07:28:44.054Z,36.83
2023-05-05T07:31:11.688Z,36.88
2023-05-05T07:33:39.293Z,37.37
2023-05-05T07:36:07.047Z,37.23
2023-05-05T07:38:34.613Z,37.05
2023-05-05T07:41:03.143Z,36.60
2023-05-05T07:43:31.147Z,36.34
2023-05-05T07:45:59.603Z,36.71
2023-05-05T07:48:28.733Z,37.27
2023-05-05T07:50:56.332Z,37.92
2023-05-05T07:53:23.800Z,38.51
2023-05-05T07:55:52.679Z,39.17
2023-05-05T07:58:23.184Z,40.15
2023-05-05T08:00:51.372Z,40.52
2023-05-05T08:03:21.702Z,41.19
2023-05-05T08:05:51.608Z,41.55
2023-05-05T08:08:19.534Z,41.84
2023-05-05T08:10:47.119Z,41.90
2023-05-05T08:13:14.732Z,42.04
2023-05-05T08:15:42.453Z,42.05
2023-05-05T08:18:09.983Z,42.06
2023-05-05T08:20:38.132Z,42.25
2023-05-05T08:23:05.655Z,41.95
2023-05-05T08:25:33.253Z,42.00
2023-05-05T08:28:00.760Z,42.33
2023-05-05T08:30:29.062Z,42.63
2023-05-05T08:32:57.797Z,42.67
2023-05-05T08:35:25.444Z,42.83
2023-05-05T08:37:53.275Z,42.78
2023-05-05T08:40:25.140Z,42.72
2023-05-05T08:42:53.509Z,42.87
2023-05-05T08:45:21.368Z,43.03
2023-05-05T08:47:49.058Z,43.05
2023-05-05T08:50:18.255Z,42.79
2023-05-05T08:52:53.848Z,43.27
2023-05-05T08:55:26.684Z,43.29
2023-05-05T08:58:01.253Z,43.67
2023-05-05T09:00:29.216Z,43.92
2023-05-05T09:02:58.933Z,44.28
2023-05-05T09:05:27.302Z,44.04
2023-05-05T09:07:55.100Z,44.37
2023-05-05T09:10:25.921Z,44.35
2023-05-05T09:12:53.752Z,44.81
2023-05-05T09:15:21.325Z,44.84
2023-05-05T09:17:48.985Z,44.51
2023-05-05T09:20:16.635Z,44.58
2023-05-05T09:22:46.924Z,44.72
2023-05-05T09:25:16.808Z,44.54
2023-05-05T09:27:49.043Z,44.64
2023-05-05T09:30:23.371Z,43.51
2023-05-05T09:32:53.326Z,43.27
2023-05-05T09:35:22.354Z,42.77
2023-05-05T09:37:50.259Z,42.37
2023-05-05T09:40:19.537Z,42.07
2023-05-05T09:42:47.909Z,40.35
2023-05-05T09:45:18.235Z,37.61
2023-05-05T09:47:49.511Z,35.28
2023-05-05T09:50:21.046Z,34.29
2023-05-05T09:52:59.733Z,32.19
2023-05-05T09:55:27.573Z,31.06
2023-05-05T09:57:55.346Z,29.48
2023-05-05T10:00:36.560Z,28.59
2023-05-05T10:03:04.946Z,27.71
2023-05-05T10:05:32.630Z,26.51
2023-05-05T10:08:13.612Z,26.26
2023-05-05T10:10:54.547Z,27.21
2023-05-05T10:13:24.206Z,29.21
2023-05-05T10:15:56.694Z,30.29
2023-05-05T10:18:28.899Z,31.64
2023-05-05T10:20:58.616Z,33.22
2023-05-05T10:23:36.167Z,34.79
2023-05-05T10:26:07.076Z,35.58
2023-05-05T10:28:49.826Z,36.84
2023-05-05T10:31:29.071Z,36.85
2023-05-05T10:34:06.087Z,38.27
2023-05-05T10:36:34.323Z,37.38
2023-05-05T10:39:03.338Z,37.41
2023-05-05T10:41:33.216Z,36.89
2023-05-05T10:44:04.290Z,36.65
2023-05-05T10:46:32.682Z,36.29
2023-05-05T10:49:12.494Z,36.53
2023-05-05T10:51:57.034Z,36.36
2023-05-05T10:54:50.662Z,36.40
2023-05-05T10:57:24.062Z,36.61
2023-05-05T10:59:52.013Z,36.50
2023-05-05T11:02:29.883Z,37.11
2023-05-05T11:05:03.836Z,37.11
2023-05-05T11:07:33.890Z,37.04
2023-05-05T11:10:06.569Z,37.57
2023-05-05T11:13:03.045Z,38.24
2023-05-05T11:15:30.672Z,37.64
2023-05-05T11:17:59.983Z,38.10
2023-05-05T11:20:43.709Z,38.98
2023-05-05T11:23:11.374Z,38.35
2023-05-05T11:25:42.209Z,38.52
2023-05-05T11:28:14.814Z,38.05
2023-05-05T11:30:58.852Z,37.38
2023-05-05T11:33:37.871Z,37.52
2023-05-05T11:36:13.798Z,37.84
2023-05-05T11:39:12.008Z,37.37
2023-05-05T11:42:19.007Z,37.74
2023-05-05T11:45:33.137Z,37.45
2023-05-05T11:48:47.220Z,37.40
2023-05-05T11:52:07.414Z,36.59
2023-05-05T11:55:09.270Z,36.50
2023-05-05T11:58:07.168Z,36.60
2023-05-05T12:01:33.003Z,35.51
2023-05-05T12:04:03.606Z,34.63
2023-05-05T12:06:34.529Z,33.95
2023-05-05T12:09:02.769Z,31.97
2023-05-05T12:11:30.425Z,31.01
2023-05-05T12:14:11.158Z,27.28
2023-05-05T12:16:39.346Z,26.07
2023-05-05T12:19:08.616Z,24.76
2023-05-05T12:21:36.349Z,23.64
2023-05-05T12:24:04.420Z,23.29
2023-05-05T12:26:33.011Z,23.16
2023-05-05T12:29:01.880Z,22.04
2023-05-05T12:31:41.605Z,20.32
2023-05-05T12:34:11.254Z,20.26
2023-05-05T12:36:39.886Z,21.63
2023-05-05T12:39:07.652Z,21.55
2023-05-05T12:41:36.027Z,22.06
2023-05-05T12:44:04.446Z,22.70
2023-05-05T12:46:45.511Z,23.21
2023-05-05T12:49:13.354Z,23.99
2023-05-05T12:51:54.341Z,23.34
2023-05-05T12:54:25.327Z,24.46
2023-05-05T12:56:53.184Z,25.89
2023-05-05T12:59:24.212Z,27.08
2023-05-05T13:01:54.145Z,27.81
2023-05-05T13:04:24.398Z,28.33
2023-05-05T13:07:12.373Z,28.25
2023-05-05T13:09:40.930Z,29.26
2023-05-05T13:12:12.324Z,30.11
2023-05-05T13:14:41.136Z,30.17
2023-05-05T13:17:09.360Z,29.98
2023-05-05T13:19:42.155Z,30.47
2023-05-05T13:22:10.939Z,30.75
2023-05-05T13:24:50.719Z,31.01
2023-05-05T13:27:20.984Z,31.02
2023-05-05T13:29:48.833Z,31.30
2023-05-05T13:32:16.333Z,30.91
2023-05-05T13:34:44.398Z,30.29
2023-05-05T13:37:12.191Z,30.34
2023-05-05T13:39:39.971Z,30.46
2023-05-05T13:42:07.475Z,29.94
2023-05-05T13:44:35.724Z,29.75
2023-05-05T13:47:04.503Z,29.84
2023-05-05T13:49:32.099Z,29.54
2023-05-05T13:51:59.691Z,29.64
2023-05-05T13:54:27.207Z,29.38
2023-05-05T13:56:54.844Z,29.64
2023-05-05T13:59:22.451Z,29.96
2023-05-05T14:01:50.215Z,29.33
2023-05-05T14:04:17.753Z,29.08
2023-05-05T14:06:45.266Z,29.42
2023-05-05T14:09:13.264Z,29.46
2023-05-05T14:11:41.229Z,29.95
2023-05-05T14:14:08.818Z,30.40
2023-05-05T14:16:36.486Z,30.20
2023-05-05T14:19:04.324Z,30.24
2023-05-05T14:21:32.962Z,30.53
2023-05-05T14:24:00.735Z,31.11
2023-05-05T14:26:28.538Z,31.35
2023-05-05T14:28:56.214Z,31.33
2023-05-05T14:31:23.733Z,31.30
2023-05-05T14:33:51.421Z,31.45
2023-05-05T14:36:19.261Z,31.32
2023-05-05T14:38:47.021Z,31.16
2023-05-05T14:41:14.630Z,31.28
2023-05-05T14:43:42.125Z,31.61
2023-05-05T14:46:09.901Z,31.68
2023-05-05T14:48:37.773Z,31.73
2023-05-05T14:51:05.457Z,31.82
2023-05-05T14:53:34.993Z,31.57
2023-05-05T14:56:02.697Z,31.85
2023-05-05T14:58:31.182Z,31.75
2023-05-05T15:01:00.559Z,32.15
2023-05-05T15:03:28.716Z,32.37
2023-05-05T15:05:56.653Z,32.86
2023-05-05T15:08:24.706Z,32.99
2023-05-05T15:10:52.403Z,33.05
2023-05-05T15:13:20.423Z,32.89
2023-05-05T15:15:49.098Z,32.76
2023-05-05T15:18:17.404Z,32.87
2023-05-05T15:20:45.011Z,32.85
2023-05-05T15:23:12.547Z,33.04
2023-05-05T15:25:40.142Z,32.72
2023-05-05T15:28:07.794Z,32.85
2023-05-05T15:30:35.480Z,33.08
2023-05-05T15:33:03.110Z,33.15
2023-05-05T15:35:30.894Z,33.17
2023-05-05T15:37:58.564Z,33.19
2023-05-05T15:40:26.194Z,33.01
2023-05-05T15:43:12.196Z,33.10
2023-05-05T15:45:41.570Z,32.40
2023-05-05T15:48:09.193Z,32.47
2023-05-05T15:50:36.953Z,31.74
2023-05-05T15:53:04.418Z,32.05
2023-05-05T15:55:32.179Z,31.21
2023-05-05T15:57:59.655Z,31.28
2023-05-05T16:00:28.199Z,30.75
2023-05-05T16:02:56.310Z,30.41
2023-05-05T16:05:23.912Z,30.72
2023-05-05T16:07:52.618Z,30.63
2023-05-05T16:10:20.689Z,31.06
2023-05-05T16:12:48.566Z,31.13
2023-05-05T16:15:16.225Z,31.30
2023-05-05T16:17:43.895Z,31.10
2023-05-05T16:20:11.816Z,31.00
2023-05-05T16:22:39.431Z,31.27
2023-05-05T16:25:07.854Z,31.73
2023-05-05T16:27:35.628Z,31.67
2023-05-05T16:30:03.500Z,31.81
2023-05-05T16:32:31.585Z,31.90
2023-05-05T16:35:00.652Z,31.71
2023-05-05T16:37:28.821Z,32.27
2023-05-05T16:39:56.436Z,32.05
2023-05-05T16:42:24.298Z,32.44
2023-05-05T16:44:51.852Z,32.10
2023-05-05T16:47:19.347Z,32.32
2023-05-05T16:49:47.274Z,32.54
2023-05-05T16:52:14.877Z,32.57
2023-05-05T16:54:43.642Z,33.02
2023-05-05T16:57:11.129Z,33.10
2023-05-05T16:59:38.689Z,33.13
2023-05-05T17:02:06.409Z,33.05
2023-05-05T17:04:34.051Z,33.17
2023-05-05T17:07:02.020Z,33.55
2023-05-05T17:09:29.614Z,33.43
2023-05-05T17:11:57.881Z,33.41
2023-05-05T17:14:27.397Z,33.07
2023-05-05T17:16:55.382Z,33.45
2023-05-05T17:19:23.326Z,33.38
2023-05-05T17:21:51.001Z,33.26
2023-05-05T17:24:18.781Z,33.74
2023-05-05T17:26:46.934Z,33.70
2023-05-05T17:29:19.740Z,33.80
2023-05-05T17:31:47.724Z,34.05
2023-05-05T17:34:15.340Z,34.24
2023-05-05T17:36:42.965Z,33.87
2023-05-05T17:39:11.563Z,33.72
2023-05-05T17:41:39.398Z,33.79
2023-05-05T17:44:07.434Z,33.40
2023-05-05T17:46:36.373Z,33.31
2023-05-05T17:49:04.313Z,33.35
2023-05-05T17:51:32.462Z,33.44
2023-05-05T17:54:00.281Z,33.48
2023-05-05T17:56:27.793Z,33.53
2023-05-05T17:58:55.361Z,33.95
2023-05-05T18:01:24.136Z,34.06
2023-05-05T18:03:51.881Z,33.94
2023-05-05T18:06:19.468Z,34.04
2023-05-05T18:09:05.743Z,34.13
2023-05-05T18:11:34.109Z,34.14
2023-05-05T18:14:01.666Z,34.24
2023-05-05T18:16:29.339Z,34.50
2023-05-05T18:18:56.879Z,34.30
2023-05-05T18:21:24.618Z,33.71
2023-05-05T18:23:57.289Z,34.22
2023-05-05T18:26:29.463Z,34.37
2023-05-05T18:28:58.064Z,34.54
2023-05-05T18:31:26.744Z,34.41
2023-05-05T18:33:54.500Z,34.49
2023-05-05T18:36:23.017Z,35.07
2023-05-05T18:38:51.218Z,34.57
2023-05-05T18:41:18.734Z,34.56
2023-05-05T18:43:46.423Z,35.15
2023-05-05T18:46:14.418Z,34.69
2023-05-05T18:48:42.183Z,35.16
2023-05-05T18:51:09.781Z,35.41
2023-05-05T18:54:06.750Z,36.69
2023-05-05T18:57:32.680Z,35.96
2023-05-05T19:04:59.628Z,35.77
2023-05-05T19:08:14.244Z,34.96
2023-05-05T19:15:39.928Z,34.13
2023-05-05T19:23:41.230Z,34.01
2023-05-05T19:27:23.216Z,33.83
2023-05-05T19:30:12.762Z,33.90
2023-05-05T19:32:40.374Z,34.13
2023-05-05T19:35:10.484Z,34.34
2023-05-05T19:37:38.603Z,34.22
2023-05-05T19:40:06.764Z,34.55
2023-05-05T19:42:34.814Z,34.33
2023-05-05T19:45:02.689Z,34.16
2023-05-05T19:47:33.634Z,34.19
2023-05-05T19:50:01.290Z,34.45
2023-05-05T19:52:29.643Z,34.88
2023-05-05T19:54:57.590Z,34.65
2023-05-05T19:57:25.181Z,34.48
2023-05-05T19:59:52.736Z,34.67
2023-05-05T20:02:22.168Z,34.69
2023-05-05T20:04:49.850Z,34.93
2023-05-05T20:07:18.018Z,35.45
2023-05-05T20:09:46.486Z,35.37
2023-05-05T20:12:14.155Z,35.55
2023-05-05T20:14:42.052Z,35.65
2023-05-05T20:17:09.727Z,36.00
2023-05-05T20:19:37.171Z,36.11
2023-05-05T20:22:05.055Z,35.97
2023-05-05T20:24:33.973Z,36.30
2023-05-05T20:27:02.105Z,36.21
2023-05-05T20:29:29.616Z,36.28
2023-05-05T20:31:57.821Z,36.43
2023-05-05T20:34:27.261Z,36.34
2023-05-05T20:36:54.917Z,36.56
2023-05-05T20:39:22.461Z,36.57
2023-05-05T20:41:49.960Z,37.17
2023-05-05T20:44:17.486Z,36.96
2023-05-05T20:46:45.134Z,37.04
2023-05-05T20:49:12.712Z,36.92
2023-05-05T20:51:40.226Z,37.03
2023-05-05T20:54:08.025Z,37.39
2023-05-05T20:56:35.580Z,37.09
2023-05-05T20:59:04.363Z,36.98
2023-05-05T21:01:32.187Z,37.36
2023-05-05T21:04:00.464Z,37.82
2023-05-05T21:06:28.114Z,37.91
2023-05-05T21:08:56.160Z,37.78
2023-05-05T21:11:23.867Z,37.86
2023-05-05T21:13:51.500Z,38.32
2023-05-05T21:16:19.010Z,38.59
2023-05-05T21:18:47.428Z,38.32
2023-05-05T21:21:15.265Z,38.38
2023-05-05T21:23:43.012Z,39.11
2023-05-05T21:26:10.598Z,39.18
2023-05-05T21:28:38.103Z,38.98
2023-05-05T21:31:21.128Z,39.18
2023-05-05T21:33:49.820Z,39.36
2023-05-05T21:36:19.164Z,39.35
2023-05-05T21:38:47.186Z,39.31
2023-05-05T21:41:14.813Z,39.66
2023-05-05T21:43:42.487Z,39.63
2023-05-05T21:46:10.003Z,39.78
2023-05-05T21:51:23.850Z,40.02
2023-05-05T21:53:51.422Z,40.41
2023-05-05T21:56:19.092Z,40.33
2023-05-05T21:59:24.026Z,40.66
2023-05-05T22:01:51.756Z,40.51
2023-05-05T22:04:19.426Z,40.77
2023-05-05T22:06:47.072Z,40.28
2023-05-05T22:09:14.616Z,40.75
2023-05-05T22:14:27.281Z,41.01
2023-05-05T22:16:54.811Z,41.20
2023-05-05T22:19:22.333Z,41.29
2023-05-05T22:21:49.959Z,41.38
2023-05-05T22:24:17.640Z,41.13
2023-05-05T22:26:45.123Z,41.23
2023-05-05T22:29:12.683Z,41.43
2023-05-05T22:31:40.506Z,41.22
2023-05-05T22:34:08.431Z,41.60
2023-05-05T22:36:36.052Z,41.40
2023-05-05T22:39:03.687Z,41.55
2023-05-05T22:41:31.334Z,42.20
2023-05-05T22:43:58.826Z,42.00
2023-05-05T22:46:26.381Z,41.70
2023-05-05T22:48:54.327Z,42.05
2023-05-05T22:51:22.390Z,41.86
2023-05-05T22:53:50.014Z,42.06
2023-05-05T22:56:17.599Z,41.88
2023-05-05T22:58:46.667Z,42.25
2023-05-05T23:01:14.431Z,42.51
2023-05-05T23:03:42.114Z,42.15
2023-05-05T23:06:09.996Z,42.66
2023-05-05T23:08:37.491Z,42.89
2023-05-05T23:11:05.211Z,42.61
2023-05-05T23:13:32.853Z,42.75
2023-05-05T23:16:00.595Z,43.29
2023-05-05T23:18:28.105Z,43.37
2023-05-05T23:20:55.906Z,43.82
2023-05-05T23:23:23.423Z,43.61
2023-05-05T23:25:51.522Z,43.84
2023-05-05T23:28:20.309Z,44.51
2023-05-05T23:30:48.181Z,44.52
2023-05-05T23:33:15.730Z,44.84
2023-05-05T23:35:45.601Z,45.01
2023-05-05T23:38:13.233Z,45.41
2023-05-05T23:40:40.763Z,45.28
2023-05-05T23:43:08.554Z,45.89
2023-05-05T23:45:36.032Z,45.88
2023-05-05T23:48:04.016Z,46.02
2023-05-05T23:50:31.554Z,46.31
2023-05-05T23:52:59.044Z,46.39
2023-05-05T23:55:26.633Z,46.70
2023-05-05T23:57:54.198Z,47.01
